sensor_id;sensor_type;location;lat;lon;timestamp;temperature;humidity
55795;DHT22;41716;51.910;4.430;2023-04-25T00:00:59;8.60;99.90
55795;DHT22;41716;51.910;4.430;2023-04-25T00:06:02;8.40;99.90
55795;DHT22;41716;51.910;4.430;2023-04-25T00:11:05;8.60;99.90
55795;DHT22;41716;51.910;4.430;2023-04-25T00:16:07;8.40;99.90
55795;DHT22;41716;51.910;4.430;2023-04-25T00:21:09;8.40;99.90
55795;DHT22;41716;51.910;4.430;2023-04-25T00:26:13;8.30;99.90
55795;DHT22;41716;51.910;4.430;2023-04-25T00:31:15;8.00;99.90
55795;DHT22;41716;51.910;4.430;2023-04-25T00:36:16;7.90;99.90
55795;DHT22;41716;51.910;4.430;2023-04-25T00:41:20;8.20;99.90
55795;DHT22;41716;51.910;4.430;2023-04-25T00:46:22;8.10;99.90
55795;DHT22;41716;51.910;4.430;2023-04-25T00:51:24;7.90;99.90
55795;DHT22;41716;51.910;4.430;2023-04-25T00:56:28;7.80;99.90
55795;DHT22;41716;51.910;4.430;2023-04-25T01:01:30;8.10;99.90
55795;DHT22;41716;51.910;4.430;2023-04-25T01:06:31;8.10;99.90
55795;DHT22;41716;51.910;4.430;2023-04-25T01:11:34;8.00;99.90
55795;DHT22;41716;51.910;4.430;2023-04-25T01:16:36;8.00;99.90
55795;DHT22;41716;51.910;4.430;2023-04-25T01:21:39;8.00;99.90
55795;DHT22;41716;51.910;4.430;2023-04-25T01:26:42;8.10;99.90
55795;DHT22;41716;51.910;4.430;2023-04-25T01:31:51;8.00;99.90
55795;DHT22;41716;51.910;4.430;2023-04-25T01:36:54;8.00;99.90
55795;DHT22;41716;51.910;4.430;2023-04-25T01:41:56;8.00;99.90
55795;DHT22;41716;51.910;4.430;2023-04-25T01:46:58;8.10;99.90
55795;DHT22;41716;51.910;4.430;2023-04-25T01:52:01;8.00;99.90
55795;DHT22;41716;51.910;4.430;2023-04-25T01:57:02;8.00;99.90
55795;DHT22;41716;51.910;4.430;2023-04-25T02:02:04;8.10;99.90
55795;DHT22;41716;51.910;4.430;2023-04-25T02:07:07;8.10;99.90
55795;DHT22;41716;51.910;4.430;2023-04-25T02:12:09;8.20;99.90
55795;DHT22;41716;51.910;4.430;2023-04-25T02:17:11;8.10;99.90
55795;DHT22;41716;51.910;4.430;2023-04-25T02:22:15;8.20;99.90
55795;DHT22;41716;51.910;4.430;2023-04-25T02:27:17;8.20;99.90
55795;DHT22;41716;51.910;4.430;2023-04-25T02:32:18;8.10;99.90
55795;DHT22;41716;51.910;4.430;2023-04-25T02:37:21;8.00;99.90
55795;DHT22;41716;51.910;4.430;2023-04-25T02:42:23;8.00;99.90
55795;DHT22;41716;51.910;4.430;2023-04-25T02:47:24;7.90;99.90
55795;DHT22;41716;51.910;4.430;2023-04-25T02:52:27;8.10;99.90
55795;DHT22;41716;51.910;4.430;2023-04-25T02:57:29;7.90;99.90
55795;DHT22;41716;51.910;4.430;2023-04-25T03:02:31;7.90;99.90
55795;DHT22;41716;51.910;4.430;2023-04-25T03:07:34;7.70;99.90
55795;DHT22;41716;51.910;4.430;2023-04-25T03:12:36;7.70;99.90
55795;DHT22;41716;51.910;4.430;2023-04-25T03:17:37;7.70;99.90
55795;DHT22;41716;51.910;4.430;2023-04-25T03:22:40;7.80;99.90
55795;DHT22;41716;51.910;4.430;2023-04-25T03:27:42;7.90;99.90
55795;DHT22;41716;51.910;4.430;2023-04-25T03:32:44;7.80;99.90
55795;DHT22;41716;51.910;4.430;2023-04-25T03:37:47;7.80;99.90
55795;DHT22;41716;51.910;4.430;2023-04-25T03:42:48;7.90;99.90
55795;DHT22;41716;51.910;4.430;2023-04-25T03:47:50;7.90;99.90
55795;DHT22;41716;51.910;4.430;2023-04-25T03:52:53;7.90;99.90
55795;DHT22;41716;51.910;4.430;2023-04-25T03:57:55;7.90;99.90
55795;DHT22;41716;51.910;4.430;2023-04-25T04:02:58;8.00;99.90
55795;DHT22;41716;51.910;4.430;2023-04-25T04:08:03;8.10;99.90
55795;DHT22;41716;51.910;4.430;2023-04-25T04:13:05;8.10;99.90
55795;DHT22;41716;51.910;4.430;2023-04-25T04:18:07;7.90;99.90
55795;DHT22;41716;51.910;4.430;2023-04-25T04:23:10;7.70;99.90
55795;DHT22;41716;51.910;4.430;2023-04-25T04:28:12;7.60;99.90
55795;DHT22;41716;51.910;4.430;2023-04-25T04:33:13;7.80;99.90
55795;DHT22;41716;51.910;4.430;2023-04-25T04:38:17;7.70;99.90
55795;DHT22;41716;51.910;4.430;2023-04-25T04:43:19;7.80;99.90
55795;DHT22;41716;51.910;4.430;2023-04-25T04:48:20;7.80;99.90
55795;DHT22;41716;51.910;4.430;2023-04-25T04:53:23;7.80;99.90
55795;DHT22;41716;51.910;4.430;2023-04-25T04:58:25;7.90;99.90
55795;DHT22;41716;51.910;4.430;2023-04-25T05:03:29;7.80;99.90
55795;DHT22;41716;51.910;4.430;2023-04-25T05:08:32;7.80;99.90
55795;DHT22;41716;51.910;4.430;2023-04-25T05:13:34;7.70;99.90
55795;DHT22;41716;51.910;4.430;2023-04-25T05:18:35;7.80;99.90
55795;DHT22;41716;51.910;4.430;2023-04-25T05:23:38;7.80;99.90
55795;DHT22;41716;51.910;4.430;2023-04-25T05:28:40;8.00;99.90
55795;DHT22;41716;51.910;4.430;2023-04-25T05:33:42;8.00;99.90
55795;DHT22;41716;51.910;4.430;2023-04-25T05:38:46;8.10;99.90
55795;DHT22;41716;51.910;4.430;2023-04-25T05:43:47;8.20;99.90
55795;DHT22;41716;51.910;4.430;2023-04-25T05:48:49;8.50;99.90
55795;DHT22;41716;51.910;4.430;2023-04-25T05:53:53;8.50;99.90
55795;DHT22;41716;51.910;4.430;2023-04-25T05:58:54;8.00;99.90
55795;DHT22;41716;51.910;4.430;2023-04-25T06:03:56;8.60;99.90
55795;DHT22;41716;51.910;4.430;2023-04-25T06:08:59;8.80;99.90
55795;DHT22;41716;51.910;4.430;2023-04-25T06:14:01;9.20;99.90
55795;DHT22;41716;51.910;4.430;2023-04-25T06:19:03;8.60;99.90
55795;DHT22;41716;51.910;4.430;2023-04-25T06:24:06;8.80;99.90
55795;DHT22;41716;51.910;4.430;2023-04-25T06:29:08;8.50;99.90
55795;DHT22;41716;51.910;4.430;2023-04-25T06:34:09;8.60;99.90
55795;DHT22;41716;51.910;4.430;2023-04-25T06:39:12;8.60;99.90
55795;DHT22;41716;51.910;4.430;2023-04-25T06:44:14;8.30;99.90
55795;DHT22;41716;51.910;4.430;2023-04-25T06:49:16;8.30;99.90
55795;DHT22;41716;51.910;4.430;2023-04-25T06:54:19;8.70;99.90
55795;DHT22;41716;51.910;4.430;2023-04-25T06:59:21;8.70;99.90
55795;DHT22;41716;51.910;4.430;2023-04-25T07:04:22;9.10;99.90
55795;DHT22;41716;51.910;4.430;2023-04-25T07:09:25;9.40;99.90
55795;DHT22;41716;51.910;4.430;2023-04-25T07:14:27;9.20;99.90
55795;DHT22;41716;51.910;4.430;2023-04-25T07:19:29;9.00;99.90
55795;DHT22;41716;51.910;4.430;2023-04-25T07:24:32;9.60;99.90
55795;DHT22;41716;51.910;4.430;2023-04-25T07:29:34;9.90;99.90
55795;DHT22;41716;51.910;4.430;2023-04-25T07:34:37;10.60;99.90
55795;DHT22;41716;51.910;4.430;2023-04-25T07:39:40;11.20;99.90
55795;DHT22;41716;51.910;4.430;2023-04-25T07:44:42;11.50;99.90
55795;DHT22;41716;51.910;4.430;2023-04-25T07:49:44;12.00;99.90
55795;DHT22;41716;51.910;4.430;2023-04-25T07:54:47;11.60;99.90
55795;DHT22;41716;51.910;4.430;2023-04-25T07:59:49;10.80;99.90
55795;DHT22;41716;51.910;4.430;2023-04-25T08:04:50;11.70;99.90
55795;DHT22;41716;51.910;4.430;2023-04-25T08:09:53;13.10;99.90
55795;DHT22;41716;51.910;4.430;2023-04-25T08:14:55;13.70;99.90
55795;DHT22;41716;51.910;4.430;2023-04-25T08:19:57;12.90;99.90
55795;DHT22;41716;51.910;4.430;2023-04-25T08:25:00;13.00;99.90
55795;DHT22;41716;51.910;4.430;2023-04-25T08:30:02;12.60;99.90
55795;DHT22;41716;51.910;4.430;2023-04-25T08:35:04;11.70;99.90
55795;DHT22;41716;51.910;4.430;2023-04-25T08:40:11;13.40;99.90
55795;DHT22;41716;51.910;4.430;2023-04-25T08:45:13;12.90;99.90
55795;DHT22;41716;51.910;4.430;2023-04-25T08:50:15;12.20;99.90
55795;DHT22;41716;51.910;4.430;2023-04-25T08:55:21;12.50;99.90
55795;DHT22;41716;51.910;4.430;2023-04-25T09:00:23;12.60;99.90
55795;DHT22;41716;51.910;4.430;2023-04-25T09:05:25;12.60;99.90
55795;DHT22;41716;51.910;4.430;2023-04-25T09:10:30;12.60;99.90
55795;DHT22;41716;51.910;4.430;2023-04-25T09:15:32;13.70;99.90
55795;DHT22;41716;51.910;4.430;2023-04-25T09:20:41;13.90;99.90
55795;DHT22;41716;51.910;4.430;2023-04-25T09:25:44;15.10;99.90
55795;DHT22;41716;51.910;4.430;2023-04-25T09:30:48;14.60;99.90
55795;DHT22;41716;51.910;4.430;2023-04-25T09:35:49;14.80;99.90
55795;DHT22;41716;51.910;4.430;2023-04-25T09:40:56;16.10;99.90
55795;DHT22;41716;51.910;4.430;2023-04-25T09:45:58;16.50;99.90
55795;DHT22;41716;51.910;4.430;2023-04-25T09:51:05;17.00;99.90
55795;DHT22;41716;51.910;4.430;2023-04-25T09:56:10;16.00;99.90
55795;DHT22;41716;51.910;4.430;2023-04-25T10:01:12;16.40;99.90
55795;DHT22;41716;51.910;4.430;2023-04-25T10:06:19;16.70;99.90
55795;DHT22;41716;51.910;4.430;2023-04-25T10:11:24;15.70;99.90
55795;DHT22;41716;51.910;4.430;2023-04-25T10:16:28;15.60;99.90
55795;DHT22;41716;51.910;4.430;2023-04-25T10:21:32;15.80;99.90
55795;DHT22;41716;51.910;4.430;2023-04-25T10:26:36;15.20;99.90
55795;DHT22;41716;51.910;4.430;2023-04-25T10:31:45;16.10;99.90
55795;DHT22;41716;51.910;4.430;2023-04-25T10:36:50;16.10;99.90
55795;DHT22;41716;51.910;4.430;2023-04-25T10:41:56;16.40;99.90
55795;DHT22;41716;51.910;4.430;2023-04-25T10:46:59;17.60;99.90
55795;DHT22;41716;51.910;4.430;2023-04-25T10:52:18;18.50;99.90
55795;DHT22;41716;51.910;4.430;2023-04-25T10:57:31;17.60;99.90
55795;DHT22;41716;51.910;4.430;2023-04-25T11:02:37;19.90;99.90
55795;DHT22;41716;51.910;4.430;2023-04-25T11:07:45;18.50;99.90
55795;DHT22;41716;51.910;4.430;2023-04-25T11:12:51;16.30;99.90
55795;DHT22;41716;51.910;4.430;2023-04-25T11:17:54;18.20;99.90
55795;DHT22;41716;51.910;4.430;2023-04-25T11:22:58;17.70;99.90
55795;DHT22;41716;51.910;4.430;2023-04-25T11:28:01;16.20;99.90
55795;DHT22;41716;51.910;4.430;2023-04-25T11:33:03;15.10;99.90
55795;DHT22;41716;51.910;4.430;2023-04-25T11:38:05;15.50;99.90
55795;DHT22;41716;51.910;4.430;2023-04-25T11:43:09;15.80;99.90
55795;DHT22;41716;51.910;4.430;2023-04-25T11:48:11;16.90;99.90
55795;DHT22;41716;51.910;4.430;2023-04-25T11:53:12;17.30;99.90
55795;DHT22;41716;51.910;4.430;2023-04-25T11:58:15;16.40;99.90
55795;DHT22;41716;51.910;4.430;2023-04-25T12:03:17;15.50;99.90
55795;DHT22;41716;51.910;4.430;2023-04-25T12:08:19;16.60;99.90
55795;DHT22;41716;51.910;4.430;2023-04-25T12:13:24;17.00;99.90
55795;DHT22;41716;51.910;4.430;2023-04-25T12:18:26;17.40;99.90
55795;DHT22;41716;51.910;4.430;2023-04-25T12:23:28;16.70;99.90
55795;DHT22;41716;51.910;4.430;2023-04-25T12:28:33;16.40;99.90
55795;DHT22;41716;51.910;4.430;2023-04-25T12:33:35;17.30;99.90
55795;DHT22;41716;51.910;4.430;2023-04-25T12:38:38;16.50;99.90
55795;DHT22;41716;51.910;4.430;2023-04-25T12:43:42;15.90;99.90
55795;DHT22;41716;51.910;4.430;2023-04-25T12:48:43;17.00;99.90
55795;DHT22;41716;51.910;4.430;2023-04-25T12:53:45;18.30;99.90
55795;DHT22;41716;51.910;4.430;2023-04-25T12:58:48;18.40;99.90
55795;DHT22;41716;51.910;4.430;2023-04-25T13:03:50;18.80;99.90
55795;DHT22;41716;51.910;4.430;2023-04-25T13:08:52;17.70;99.90
55795;DHT22;41716;51.910;4.430;2023-04-25T13:13:56;16.80;99.90
55795;DHT22;41716;51.910;4.430;2023-04-25T13:18:58;17.80;99.90
55795;DHT22;41716;51.910;4.430;2023-04-25T13:23:59;17.20;99.90
55795;DHT22;41716;51.910;4.430;2023-04-25T13:29:04;18.50;99.70
55795;DHT22;41716;51.910;4.430;2023-04-25T13:34:05;18.40;99.90
55795;DHT22;41716;51.910;4.430;2023-04-25T13:39:07;16.80;99.90
55795;DHT22;41716;51.910;4.430;2023-04-25T13:44:10;17.40;99.90
55795;DHT22;41716;51.910;4.430;2023-04-25T13:49:12;16.60;99.90
55795;DHT22;41716;51.910;4.430;2023-04-25T13:54:13;16.20;99.90
55795;DHT22;41716;51.910;4.430;2023-04-25T13:59:16;15.90;99.90
55795;DHT22;41716;51.910;4.430;2023-04-25T14:04:18;16.90;99.90
55795;DHT22;41716;51.910;4.430;2023-04-25T14:09:20;17.80;99.90
55795;DHT22;41716;51.910;4.430;2023-04-25T14:14:27;17.80;99.90
55795;DHT22;41716;51.910;4.430;2023-04-25T14:19:29;17.00;99.90
55795;DHT22;41716;51.910;4.430;2023-04-25T14:24:30;17.40;99.90
55795;DHT22;41716;51.910;4.430;2023-04-25T14:29:33;17.20;99.40
55795;DHT22;41716;51.910;4.430;2023-04-25T14:34:35;17.40;99.50
55795;DHT22;41716;51.910;4.430;2023-04-25T14:39:37;17.50;99.90
55795;DHT22;41716;51.910;4.430;2023-04-25T14:44:40;16.80;99.90
55795;DHT22;41716;51.910;4.430;2023-04-25T14:49:41;17.10;99.90
55795;DHT22;41716;51.910;4.430;2023-04-25T14:54:43;16.80;99.90
55795;DHT22;41716;51.910;4.430;2023-04-25T14:59:46;16.90;99.90
55795;DHT22;41716;51.910;4.430;2023-04-25T15:04:48;17.30;99.90
55795;DHT22;41716;51.910;4.430;2023-04-25T15:09:50;17.00;99.40
55795;DHT22;41716;51.910;4.430;2023-04-25T15:14:55;17.00;99.90
55795;DHT22;41716;51.910;4.430;2023-04-25T15:19:57;16.30;99.90
55795;DHT22;41716;51.910;4.430;2023-04-25T15:24:59;15.60;99.90
55795;DHT22;41716;51.910;4.430;2023-04-25T15:30:03;15.60;99.90
55795;DHT22;41716;51.910;4.430;2023-04-25T15:35:06;14.70;99.90
55795;DHT22;41716;51.910;4.430;2023-04-25T15:40:10;15.40;99.90
55795;DHT22;41716;51.910;4.430;2023-04-25T15:45:14;15.10;99.90
55795;DHT22;41716;51.910;4.430;2023-04-25T15:50:17;15.50;99.90
55795;DHT22;41716;51.910;4.430;2023-04-25T15:55:19;15.30;99.90
55795;DHT22;41716;51.910;4.430;2023-04-25T16:00:24;15.30;99.90
55795;DHT22;41716;51.910;4.430;2023-04-25T16:05:26;15.30;99.90
55795;DHT22;41716;51.910;4.430;2023-04-25T16:10:27;15.30;99.90
55795;DHT22;41716;51.910;4.430;2023-04-25T16:15:30;14.80;99.90
55795;DHT22;41716;51.910;4.430;2023-04-25T16:20:32;14.50;99.90
55795;DHT22;41716;51.910;4.430;2023-04-25T16:25:34;14.60;99.90
55795;DHT22;41716;51.910;4.430;2023-04-25T16:30:37;14.70;99.90
55795;DHT22;41716;51.910;4.430;2023-04-25T16:35:39;15.00;99.90
55795;DHT22;41716;51.910;4.430;2023-04-25T16:40:40;14.50;99.90
55795;DHT22;41716;51.910;4.430;2023-04-25T16:45:43;14.10;99.90
55795;DHT22;41716;51.910;4.430;2023-04-25T16:50:45;14.30;99.90
55795;DHT22;41716;51.910;4.430;2023-04-25T16:55:47;13.70;99.90
55795;DHT22;41716;51.910;4.430;2023-04-25T17:00:50;13.40;99.90
55795;DHT22;41716;51.910;4.430;2023-04-25T17:05:53;13.10;99.90
55795;DHT22;41716;51.910;4.430;2023-04-25T17:10:56;13.20;99.90
55795;DHT22;41716;51.910;4.430;2023-04-25T17:16:00;13.30;99.90
55795;DHT22;41716;51.910;4.430;2023-04-25T17:21:02;13.40;99.90
55795;DHT22;41716;51.910;4.430;2023-04-25T17:26:05;13.00;99.90
55795;DHT22;41716;51.910;4.430;2023-04-25T17:31:08;13.10;99.90
55795;DHT22;41716;51.910;4.430;2023-04-25T17:36:10;12.90;99.90
55795;DHT22;41716;51.910;4.430;2023-04-25T17:41:11;12.80;99.90
55795;DHT22;41716;51.910;4.430;2023-04-25T17:46:15;12.80;99.90
55795;DHT22;41716;51.910;4.430;2023-04-25T17:51:17;12.40;99.90
55795;DHT22;41716;51.910;4.430;2023-04-25T17:56:19;12.20;99.90
55795;DHT22;41716;51.910;4.430;2023-04-25T18:01:22;12.50;99.90
55795;DHT22;41716;51.910;4.430;2023-04-25T18:06:23;12.30;99.90
55795;DHT22;41716;51.910;4.430;2023-04-25T18:11:28;12.20;99.90
55795;DHT22;41716;51.910;4.430;2023-04-25T18:16:31;11.60;99.90
55795;DHT22;41716;51.910;4.430;2023-04-25T18:21:33;11.30;99.90
55795;DHT22;41716;51.910;4.430;2023-04-25T18:26:35;11.40;99.90
55795;DHT22;41716;51.910;4.430;2023-04-25T18:31:38;11.70;99.90
55795;DHT22;41716;51.910;4.430;2023-04-25T18:36:40;11.30;99.90
55795;DHT22;41716;51.910;4.430;2023-04-25T18:41:42;11.20;99.90
55795;DHT22;41716;51.910;4.430;2023-04-25T18:46:45;11.10;99.90
55795;DHT22;41716;51.910;4.430;2023-04-25T18:51:47;10.90;99.90
55795;DHT22;41716;51.910;4.430;2023-04-25T18:56:48;10.80;99.90
55795;DHT22;41716;51.910;4.430;2023-04-25T19:01:52;10.80;99.90
55795;DHT22;41716;51.910;4.430;2023-04-25T19:06:54;10.70;99.90
55795;DHT22;41716;51.910;4.430;2023-04-25T19:11:56;10.40;99.90
55795;DHT22;41716;51.910;4.430;2023-04-25T19:16:59;10.40;99.90
55795;DHT22;41716;51.910;4.430;2023-04-25T19:22:00;10.20;99.90
55795;DHT22;41716;51.910;4.430;2023-04-25T19:27:02;10.40;99.90
55795;DHT22;41716;51.910;4.430;2023-04-25T19:32:05;10.30;99.90
55795;DHT22;41716;51.910;4.430;2023-04-25T19:37:07;10.30;99.90
55795;DHT22;41716;51.910;4.430;2023-04-25T19:42:09;10.20;99.90
55795;DHT22;41716;51.910;4.430;2023-04-25T19:47:12;10.10;99.90
55795;DHT22;41716;51.910;4.430;2023-04-25T19:52:14;10.10;99.90
55795;DHT22;41716;51.910;4.430;2023-04-25T19:57:16;10.10;99.90
55795;DHT22;41716;51.910;4.430;2023-04-25T20:02:19;10.00;99.90
55795;DHT22;41716;51.910;4.430;2023-04-25T20:07:21;9.70;99.90
55795;DHT22;41716;51.910;4.430;2023-04-25T20:12:23;9.60;99.90
55795;DHT22;41716;51.910;4.430;2023-04-25T20:17:27;9.50;99.90
55795;DHT22;41716;51.910;4.430;2023-04-25T20:22:29;9.50;99.90
55795;DHT22;41716;51.910;4.430;2023-04-25T20:27:35;9.40;99.90
55795;DHT22;41716;51.910;4.430;2023-04-25T20:32:39;9.30;99.90
55795;DHT22;41716;51.910;4.430;2023-04-25T20:37:41;9.40;99.90
55795;DHT22;41716;51.910;4.430;2023-04-25T20:42:42;9.20;99.90
55795;DHT22;41716;51.910;4.430;2023-04-25T20:47:46;9.20;99.90
55795;DHT22;41716;51.910;4.430;2023-04-25T20:52:48;9.20;99.90
55795;DHT22;41716;51.910;4.430;2023-04-25T20:57:50;9.20;99.90
55795;DHT22;41716;51.910;4.430;2023-04-25T21:02:54;9.30;99.90
55795;DHT22;41716;51.910;4.430;2023-04-25T21:07:56;9.20;99.90
55795;DHT22;41716;51.910;4.430;2023-04-25T21:12:57;9.20;99.90
55795;DHT22;41716;51.910;4.430;2023-04-25T21:18:00;9.40;99.90
55795;DHT22;41716;51.910;4.430;2023-04-25T21:23:02;9.20;99.90
55795;DHT22;41716;51.910;4.430;2023-04-25T21:28:04;8.90;99.90
55795;DHT22;41716;51.910;4.430;2023-04-25T21:33:08;9.10;99.90
55795;DHT22;41716;51.910;4.430;2023-04-25T21:38:10;8.90;99.90
55795;DHT22;41716;51.910;4.430;2023-04-25T21:43:13;8.90;99.90
55795;DHT22;41716;51.910;4.430;2023-04-25T21:48:16;8.90;99.90
55795;DHT22;41716;51.910;4.430;2023-04-25T21:53:18;9.10;99.90
55795;DHT22;41716;51.910;4.430;2023-04-25T21:58:20;9.10;99.90
55795;DHT22;41716;51.910;4.430;2023-04-25T22:03:23;8.70;99.90
55795;DHT22;41716;51.910;4.430;2023-04-25T22:08:24;8.70;99.90
55795;DHT22;41716;51.910;4.430;2023-04-25T22:13:26;8.60;99.90
55795;DHT22;41716;51.910;4.430;2023-04-25T22:18:29;8.60;99.90
55795;DHT22;41716;51.910;4.430;2023-04-25T22:23:31;8.80;99.90
55795;DHT22;41716;51.910;4.430;2023-04-25T22:28:33;8.70;99.90
55795;DHT22;41716;51.910;4.430;2023-04-25T22:33:36;8.70;99.90
55795;DHT22;41716;51.910;4.430;2023-04-25T22:38:38;8.70;99.90
55795;DHT22;41716;51.910;4.430;2023-04-25T22:43:41;8.50;99.90
55795;DHT22;41716;51.910;4.430;2023-04-25T22:48:44;8.40;99.90
55795;DHT22;41716;51.910;4.430;2023-04-25T22:53:46;8.30;99.90
55795;DHT22;41716;51.910;4.430;2023-04-25T22:58:48;8.20;99.90
55795;DHT22;41716;51.910;4.430;2023-04-25T23:03:52;8.30;99.90
55795;DHT22;41716;51.910;4.430;2023-04-25T23:08:53;8.40;99.90
55795;DHT22;41716;51.910;4.430;2023-04-25T23:13:55;8.30;99.90
55795;DHT22;41716;51.910;4.430;2023-04-25T23:18:59;8.50;99.90
55795;DHT22;41716;51.910;4.430;2023-04-25T23:24:01;8.50;99.90
55795;DHT22;41716;51.910;4.430;2023-04-25T23:29:03;8.50;99.90
55795;DHT22;41716;51.910;4.430;2023-04-25T23:34:06;8.20;99.90
55795;DHT22;41716;51.910;4.430;2023-04-25T23:39:08;8.10;99.90
55795;DHT22;41716;51.910;4.430;2023-04-25T23:44:09;8.00;99.90
55795;DHT22;41716;51.910;4.430;2023-04-25T23:49:13;7.90;99.90
55795;DHT22;41716;51.910;4.430;2023-04-25T23:54:14;7.90;99.90
55795;DHT22;41716;51.910;4.430;2023-04-25T23:59:16;7.70;99.90
